sensor_id;sensor_type;location;lat;lon;timestamp;pressure;altitude;pressure_sealevel;temperature;humidity
11676;BME280;5894;42.768;23.404;2023-02-10T00:00:52;97500.81;;;-4.36;100.00
11676;BME280;5894;42.768;23.404;2023-02-10T00:03:19;97502.75;;;-4.30;100.00
11676;BME280;5894;42.768;23.404;2023-02-10T00:05:45;97503.06;;;-4.25;100.00
11676;BME280;5894;42.768;23.404;2023-02-10T00:08:12;97497.09;;;-4.25;100.00
11676;BME280;5894;42.768;23.404;2023-02-10T00:10:40;97498.72;;;-4.24;100.00
11676;BME280;5894;42.768;23.404;2023-02-10T00:13:07;97492.16;;;-4.27;100.00
11676;BME280;5894;42.768;23.404;2023-02-10T00:15:34;97492.31;;;-4.28;100.00
11676;BME280;5894;42.768;23.404;2023-02-10T00:18:01;97498.91;;;-4.26;100.00
11676;BME280;5894;42.768;23.404;2023-02-10T00:20:29;97492.44;;;-4.22;100.00
11676;BME280;5894;42.768;23.404;2023-02-10T00:22:56;97497.13;;;-4.09;100.00
11676;BME280;5894;42.768;23.404;2023-02-10T00:25:23;97491.66;;;-4.22;100.00
11676;BME280;5894;42.768;23.404;2023-02-10T00:27:51;97493.25;;;-4.21;100.00
11676;BME280;5894;42.768;23.404;2023-02-10T00:30:18;97486.81;;;-4.09;100.00
11676;BME280;5894;42.768;23.404;2023-02-10T00:32:47;97483.91;;;-4.06;100.00
11676;BME280;5894;42.768;23.404;2023-02-10T00:35:15;97484.22;;;-4.33;100.00
11676;BME280;5894;42.768;23.404;2023-02-10T00:37:42;97482.94;;;-4.46;100.00
11676;BME280;5894;42.768;23.404;2023-02-10T00:40:09;97480.19;;;-4.36;100.00
11676;BME280;5894;42.768;23.404;2023-02-10T00:42:36;97480.03;;;-4.43;100.00
11676;BME280;5894;42.768;23.404;2023-02-10T00:45:05;97477.78;;;-4.46;100.00
11676;BME280;5894;42.768;23.404;2023-02-10T00:47:31;97475.38;;;-4.39;100.00
11676;BME280;5894;42.768;23.404;2023-02-10T00:49:59;97466.38;;;-4.43;100.00
11676;BME280;5894;42.768;23.404;2023-02-10T00:52:26;97467.81;;;-4.49;100.00
11676;BME280;5894;42.768;23.404;2023-02-10T00:54:53;97469.59;;;-4.49;100.00
11676;BME280;5894;42.768;23.404;2023-02-10T00:57:21;97470.41;;;-4.49;100.00
11676;BME280;5894;42.768;23.404;2023-02-10T00:59:49;97459.09;;;-4.56;100.00
11676;BME280;5894;42.768;23.404;2023-02-10T01:02:17;97467.31;;;-4.52;100.00
11676;BME280;5894;42.768;23.404;2023-02-10T01:04:44;97465.06;;;-4.55;100.00
11676;BME280;5894;42.768;23.404;2023-02-10T01:07:11;97452.53;;;-4.58;100.00
11676;BME280;5894;42.768;23.404;2023-02-10T01:09:38;97461.38;;;-4.53;100.00
11676;BME280;5894;42.768;23.404;2023-02-10T01:12:05;97451.56;;;-4.57;100.00
11676;BME280;5894;42.768;23.404;2023-02-10T01:14:33;97458.00;;;-4.61;100.00
11676;BME280;5894;42.768;23.404;2023-02-10T01:17:02;97434.63;;;-4.76;100.00
11676;BME280;5894;42.768;23.404;2023-02-10T01:19:30;97454.31;;;-4.59;100.00
11676;BME280;5894;42.768;23.404;2023-02-10T01:21:57;97454.31;;;-4.59;100.00
11676;BME280;5894;42.768;23.404;2023-02-10T01:24:24;97453.50;;;-4.59;100.00
11676;BME280;5894;42.768;23.404;2023-02-10T01:26:51;97457.03;;;-4.60;100.00
11676;BME280;5894;42.768;23.404;2023-02-10T01:29:17;97452.03;;;-4.62;100.00
11676;BME280;5894;42.768;23.404;2023-02-10T01:31:44;97448.81;;;-4.64;100.00
11676;BME280;5894;42.768;23.404;2023-02-10T01:34:11;97441.44;;;-4.59;100.00
11676;BME280;5894;42.768;23.404;2023-02-10T01:36:39;97444.63;;;-4.65;100.00
11676;BME280;5894;42.768;23.404;2023-02-10T01:39:06;97434.81;;;-4.61;100.00
11676;BME280;5894;42.768;23.404;2023-02-10T01:41:34;97437.72;;;-4.64;100.00
11676;BME280;5894;42.768;23.404;2023-02-10T01:44:02;97430.47;;;-4.69;100.00
11676;BME280;5894;42.768;23.404;2023-02-10T01:46:32;97435.94;;;-4.72;100.00
11676;BME280;5894;42.768;23.404;2023-02-10T01:49:04;97433.06;;;-4.69;100.00
11676;BME280;5894;42.768;23.404;2023-02-10T01:51:37;97429.69;;;-4.69;100.00
11676;BME280;5894;42.768;23.404;2023-02-10T01:54:09;97429.03;;;-4.71;100.00
11676;BME280;5894;42.768;23.404;2023-02-10T01:56:38;97429.03;;;-4.79;100.00
11676;BME280;5894;42.768;23.404;2023-02-10T01:59:05;97427.25;;;-4.79;100.00
11676;BME280;5894;42.768;23.404;2023-02-10T02:01:34;97422.25;;;-4.81;100.00
11676;BME280;5894;42.768;23.404;2023-02-10T02:04:02;97423.06;;;-4.80;100.00
11676;BME280;5894;42.768;23.404;2023-02-10T02:06:29;97423.06;;;-4.80;100.00
11676;BME280;5894;42.768;23.404;2023-02-10T02:08:59;97418.56;;;-4.78;100.00
11676;BME280;5894;42.768;23.404;2023-02-10T02:11:31;97410.34;;;-4.82;100.00
11676;BME280;5894;42.768;23.404;2023-02-10T02:14:12;97411.16;;;-4.81;100.00
11676;BME280;5894;42.768;23.404;2023-02-10T02:16:52;97412.78;;;-4.80;100.00
11676;BME280;5894;42.768;23.404;2023-02-10T02:22:52;97411.16;;;-4.81;100.00
11676;BME280;5894;42.768;23.404;2023-02-10T02:25:34;97414.69;;;-4.74;100.00
11676;BME280;5894;42.768;23.404;2023-02-10T02:28:25;97414.38;;;-4.79;100.00
11676;BME280;5894;42.768;23.404;2023-02-10T02:31:31;97405.06;;;-4.88;100.00
11676;BME280;5894;42.768;23.404;2023-02-10T02:34:03;97397.16;;;-4.95;100.00
11676;BME280;5894;42.768;23.404;2023-02-10T02:36:36;97408.41;;;-4.88;100.00
11676;BME280;5894;42.768;23.404;2023-02-10T02:39:05;97387.34;;;-4.91;100.00
11676;BME280;5894;42.768;23.404;2023-02-10T02:41:35;97380.09;;;-5.12;100.00
11676;BME280;5894;42.768;23.404;2023-02-10T02:44:05;97383.78;;;-5.14;100.00
11676;BME280;5894;42.768;23.404;2023-02-10T02:46:40;97394.88;;;-5.14;100.00
11676;BME280;5894;42.768;23.404;2023-02-10T02:49:15;97385.69;;;-5.17;100.00
11676;BME280;5894;42.768;23.404;2023-02-10T02:51:49;97384.72;;;-5.24;100.00
11676;BME280;5894;42.768;23.404;2023-02-10T02:54:24;97386.84;;;-5.19;100.00
11676;BME280;5894;42.768;23.404;2023-02-10T02:57:00;97383.75;;;-5.23;100.00
11676;BME280;5894;42.768;23.404;2023-02-10T02:59:34;97386.03;;;-5.20;100.00
11676;BME280;5894;42.768;23.404;2023-02-10T03:02:07;97390.03;;;-5.25;100.00
11676;BME280;5894;42.768;23.404;2023-02-10T03:04:38;97386.03;;;-5.20;100.00
11676;BME280;5894;42.768;23.404;2023-02-10T03:07:06;97385.84;;;-5.26;100.00
11676;BME280;5894;42.768;23.404;2023-02-10T03:09:33;97383.09;;;-5.25;100.00
11676;BME280;5894;42.768;23.404;2023-02-10T03:12:00;97387.13;;;-5.22;100.00
11676;BME280;5894;42.768;23.404;2023-02-10T03:14:27;97387.94;;;-5.22;100.00
11676;BME280;5894;42.768;23.404;2023-02-10T03:16:53;97385.03;;;-5.27;100.00
11676;BME280;5894;42.768;23.404;2023-02-10T03:19:22;97380.03;;;-5.28;100.00
11676;BME280;5894;42.768;23.404;2023-02-10T03:21:48;97383.09;;;-5.25;100.00
11676;BME280;5894;42.768;23.404;2023-02-10T03:24:15;97391.47;;;-5.31;100.00
11676;BME280;5894;42.768;23.404;2023-02-10T03:26:43;97389.84;;;-5.32;100.00
11676;BME280;5894;42.768;23.404;2023-02-10T03:29:10;97393.38;;;-5.41;100.00
11676;BME280;5894;42.768;23.404;2023-02-10T03:31:37;97398.66;;;-5.42;100.00
11676;BME280;5894;42.768;23.404;2023-02-10T03:34:04;97386.75;;;-5.51;100.00
11676;BME280;5894;42.768;23.404;2023-02-10T03:36:33;97393.66;;;-5.44;100.00
11676;BME280;5894;42.768;23.404;2023-02-10T03:39:00;97392.06;;;-5.45;100.00
11676;BME280;5894;42.768;23.404;2023-02-10T03:41:26;97383.84;;;-5.48;100.00
11676;BME280;5894;42.768;23.404;2023-02-10T03:43:53;97385.59;;;-5.49;100.00
11676;BME280;5894;42.768;23.404;2023-02-10T03:46:20;97386.91;;;-5.53;100.00
11676;BME280;5894;42.768;23.404;2023-02-10T03:48:47;97381.22;;;-5.65;100.00
11676;BME280;5894;42.768;23.404;2023-02-10T03:51:14;97387.78;;;-5.70;100.00
11676;BME280;5894;42.768;23.404;2023-02-10T03:53:42;97377.63;;;-5.80;100.00
11676;BME280;5894;42.768;23.404;2023-02-10T03:56:09;97381.00;;;-5.79;100.00
11676;BME280;5894;42.768;23.404;2023-02-10T03:58:37;97378.94;;;-5.76;100.00
11676;BME280;5894;42.768;23.404;2023-02-10T04:01:15;97378.13;;;-5.76;100.00
11676;BME280;5894;42.768;23.404;2023-02-10T04:03:42;97374.31;;;-5.72;100.00
11676;BME280;5894;42.768;23.404;2023-02-10T04:06:10;97369.78;;;-5.70;100.00
11676;BME280;5894;42.768;23.404;2023-02-10T04:08:37;97378.63;;;-5.73;100.00
11676;BME280;5894;42.768;23.404;2023-02-10T04:11:06;97381.34;;;-5.74;100.00
11676;BME280;5894;42.768;23.404;2023-02-10T04:13:34;97381.06;;;-5.71;100.00
11676;BME280;5894;42.768;23.404;2023-02-10T04:16:02;97378.31;;;-5.70;100.00
11676;BME280;5894;42.768;23.404;2023-02-10T04:18:30;97336.00;;;-6.00;100.00
11676;BME280;5894;42.768;23.404;2023-02-10T04:20:57;97374.63;;;-5.67;100.00
11676;BME280;5894;42.768;23.404;2023-02-10T04:23:24;97370.28;;;-5.67;100.00
11676;BME280;5894;42.768;23.404;2023-02-10T04:25:50;97369.63;;;-5.69;100.00
11676;BME280;5894;42.768;23.404;2023-02-10T04:28:19;97374.78;;;-5.69;100.00
11676;BME280;5894;42.768;23.404;2023-02-10T04:30:46;97341.00;;;-5.90;100.00
11676;BME280;5894;42.768;23.404;2023-02-10T04:33:16;97371.75;;;-5.72;100.00
11676;BME280;5894;42.768;23.404;2023-02-10T04:35:43;97367.06;;;-5.69;100.00
11676;BME280;5894;42.768;23.404;2023-02-10T04:38:10;97374.47;;;-5.66;100.00
11676;BME280;5894;42.768;23.404;2023-02-10T04:40:37;97370.28;;;-5.67;100.00
11676;BME280;5894;42.768;23.404;2023-02-10T04:43:07;97368.22;;;-5.71;100.00
11676;BME280;5894;42.768;23.404;2023-02-10T04:45:36;97377.50;;;-5.70;100.00
11676;BME280;5894;42.768;23.404;2023-02-10T04:48:03;97399.81;;;-5.71;100.00
11676;BME280;5894;42.768;23.404;2023-02-10T04:50:30;97378.81;;;-5.66;100.00
11676;BME280;5894;42.768;23.404;2023-02-10T04:52:56;97381.69;;;-5.69;100.00
11676;BME280;5894;42.768;23.404;2023-02-10T04:55:23;97384.88;;;-5.75;100.00
11676;BME280;5894;42.768;23.404;2023-02-10T04:57:50;97383.56;;;-5.79;100.00
11676;BME280;5894;42.768;23.404;2023-02-10T05:00:17;97378.44;;;-5.79;100.00
11676;BME280;5894;42.768;23.404;2023-02-10T05:02:45;97374.25;;;-5.88;100.00
11676;BME280;5894;42.768;23.404;2023-02-10T05:05:12;97371.84;;;-5.90;100.00
11676;BME280;5894;42.768;23.404;2023-02-10T05:07:39;97396.56;;;-5.81;100.00
11676;BME280;5894;42.768;23.404;2023-02-10T05:10:06;97392.09;;;-5.79;100.00
11676;BME280;5894;42.768;23.404;2023-02-10T05:12:33;97403.31;;;-5.80;100.00
11676;BME280;5894;42.768;23.404;2023-02-10T05:15:00;97408.47;;;-5.80;100.00
11676;BME280;5894;42.768;23.404;2023-02-10T05:17:27;97407.50;;;-5.79;100.00
11676;BME280;5894;42.768;23.404;2023-02-10T05:19:55;97407.22;;;-5.68;100.00
11676;BME280;5894;42.768;23.404;2023-02-10T05:22:22;97418.16;;;-5.74;100.00
11676;BME280;5894;42.768;23.404;2023-02-10T05:24:54;97421.66;;;-5.75;100.00
11676;BME280;5894;42.768;23.404;2023-02-10T05:27:22;97422.19;;;-5.71;100.00
11676;BME280;5894;42.768;23.404;2023-02-10T05:29:49;97423.75;;;-5.70;100.00
11676;BME280;5894;42.768;23.404;2023-02-10T05:32:15;97429.41;;;-5.67;99.71
11676;BME280;5894;42.768;23.404;2023-02-10T05:34:42;97427.22;;;-5.87;100.00
11676;BME280;5894;42.768;23.404;2023-02-10T05:37:10;97438.00;;;-5.84;100.00
11676;BME280;5894;42.768;23.404;2023-02-10T05:39:37;97430.94;;;-5.90;100.00
11676;BME280;5894;42.768;23.404;2023-02-10T05:42:05;97438.66;;;-5.82;100.00
11676;BME280;5894;42.768;23.404;2023-02-10T05:44:32;97435.81;;;-5.71;99.66
11676;BME280;5894;42.768;23.404;2023-02-10T05:46:59;97439.94;;;-5.78;100.00
11676;BME280;5894;42.768;23.404;2023-02-10T05:49:26;97443.63;;;-5.80;98.89
11676;BME280;5894;42.768;23.404;2023-02-10T05:51:52;97447.63;;;-5.94;100.00
11676;BME280;5894;42.768;23.404;2023-02-10T05:54:20;97356.91;;;-6.54;100.00
11676;BME280;5894;42.768;23.404;2023-02-10T05:56:48;97452.91;;;-5.87;100.00
11676;BME280;5894;42.768;23.404;2023-02-10T05:59:15;97450.03;;;-5.93;100.00
11676;BME280;5894;42.768;23.404;2023-02-10T06:01:42;97446.91;;;-6.04;100.00
11676;BME280;5894;42.768;23.404;2023-02-10T06:04:10;97455.44;;;-6.04;100.00
11676;BME280;5894;42.768;23.404;2023-02-10T06:06:36;97458.63;;;-6.02;100.00
11676;BME280;5894;42.768;23.404;2023-02-10T06:09:03;97466.69;;;-5.97;100.00
11676;BME280;5894;42.768;23.404;2023-02-10T06:11:32;97471.03;;;-5.97;100.00
11676;BME280;5894;42.768;23.404;2023-02-10T06:13:59;97464.19;;;-5.88;100.00
11676;BME280;5894;42.768;23.404;2023-02-10T06:16:26;97464.81;;;-5.86;100.00
11676;BME280;5894;42.768;23.404;2023-02-10T06:18:53;97471.41;;;-5.84;100.00
11676;BME280;5894;42.768;23.404;2023-02-10T06:21:20;97477.41;;;-5.75;100.00
11676;BME280;5894;42.768;23.404;2023-02-10T06:23:48;97469.84;;;-5.77;100.00
11676;BME280;5894;42.768;23.404;2023-02-10T06:26:15;97450.84;;;-5.84;100.00
11676;BME280;5894;42.768;23.404;2023-02-10T06:28:43;97470.69;;;-5.68;100.00
11676;BME280;5894;42.768;23.404;2023-02-10T06:31:10;97477.97;;;-5.56;100.00
11676;BME280;5894;42.768;23.404;2023-02-10T06:33:37;97423.88;;;-5.88;100.00
11676;BME280;5894;42.768;23.404;2023-02-10T06:36:05;97484.31;;;-5.42;100.00
11676;BME280;5894;42.768;23.404;2023-02-10T06:38:33;97492.19;;;-5.43;100.00
11676;BME280;5894;42.768;23.404;2023-02-10T06:41:00;97486.75;;;-5.40;100.00
11676;BME280;5894;42.768;23.404;2023-02-10T06:43:27;97483.88;;;-5.29;100.00
11676;BME280;5894;42.768;23.404;2023-02-10T06:45:55;97486.78;;;-5.24;100.00
11676;BME280;5894;42.768;23.404;2023-02-10T06:48:22;97496.16;;;-5.15;100.00
11676;BME280;5894;42.768;23.404;2023-02-10T06:50:49;97496.97;;;-5.14;100.00
11676;BME280;5894;42.768;23.404;2023-02-10T06:53:15;97495.06;;;-5.04;100.00
11676;BME280;5894;42.768;23.404;2023-02-10T06:55:43;97501.38;;;-4.91;100.00
11676;BME280;5894;42.768;23.404;2023-02-10T06:58:10;97500.91;;;-4.86;100.00
11676;BME280;5894;42.768;23.404;2023-02-10T07:00:37;97504.47;;;-4.71;100.00
11676;BME280;5894;42.768;23.404;2023-02-10T07:03:07;97496.47;;;-4.60;100.00
11676;BME280;5894;42.768;23.404;2023-02-10T07:05:34;97496.31;;;-4.50;100.00
11676;BME280;5894;42.768;23.404;2023-02-10T07:08:02;97496.47;;;-4.44;100.00
11676;BME280;5894;42.768;23.404;2023-02-10T07:10:29;97497.13;;;-4.33;100.00
11676;BME280;5894;42.768;23.404;2023-02-10T07:12:56;97489.06;;;-4.22;100.00
11676;BME280;5894;42.768;23.404;2023-02-10T07:15:23;97489.06;;;-4.22;100.00
11676;BME280;5894;42.768;23.404;2023-02-10T07:17:50;97484.88;;;-4.07;100.00
11676;BME280;5894;42.768;23.404;2023-02-10T07:20:19;97481.34;;;-3.98;100.00
11676;BME280;5894;42.768;23.404;2023-02-10T07:22:46;97479.53;;;-3.89;100.00
11676;BME280;5894;42.768;23.404;2023-02-10T07:25:13;97440.09;;;-4.14;100.00
11676;BME280;5894;42.768;23.404;2023-02-10T07:27:40;97486.16;;;-3.87;100.00
11676;BME280;5894;42.768;23.404;2023-02-10T07:30:08;97490.97;;;-3.84;100.00
11676;BME280;5894;42.768;23.404;2023-02-10T07:32:35;97494.06;;;-3.96;98.44
11676;BME280;5894;42.768;23.404;2023-02-10T07:35:01;97494.53;;;-3.93;99.30
11676;BME280;5894;42.768;23.404;2023-02-10T07:37:31;97482.59;;;-3.94;100.00
11676;BME280;5894;42.768;23.404;2023-02-10T07:39:58;97489.84;;;-3.89;100.00
11676;BME280;5894;42.768;23.404;2023-02-10T07:42:25;97485.19;;;-3.86;100.00
11676;BME280;5894;42.768;23.404;2023-02-10T07:45:12;97493.88;;;-3.79;100.00
11676;BME280;5894;42.768;23.404;2023-02-10T07:47:39;97488.69;;;-3.71;100.00
11676;BME280;5894;42.768;23.404;2023-02-10T07:50:07;97479.19;;;-3.70;100.00
11676;BME280;5894;42.768;23.404;2023-02-10T07:52:36;97476.13;;;-3.74;100.00
11676;BME280;5894;42.768;23.404;2023-02-10T07:55:03;97475.97;;;-3.64;100.00
11676;BME280;5894;42.768;23.404;2023-02-10T07:57:30;97469.19;;;-3.73;100.00
11676;BME280;5894;42.768;23.404;2023-02-10T07:59:57;97467.56;;;-3.66;99.90
11676;BME280;5894;42.768;23.404;2023-02-10T08:02:23;97487.19;;;-3.49;99.13
11676;BME280;5894;42.768;23.404;2023-02-10T08:04:50;97483.44;;;-3.38;99.02
11676;BME280;5894;42.768;23.404;2023-02-10T08:07:19;97477.00;;;-3.34;98.40
11676;BME280;5894;42.768;23.404;2023-02-10T08:09:48;97476.94;;;-3.26;98.25
11676;BME280;5894;42.768;23.404;2023-02-10T08:12:15;97481.13;;;-3.25;98.20
11676;BME280;5894;42.768;23.404;2023-02-10T08:14:42;97479.31;;;-3.16;98.27
11676;BME280;5894;42.768;23.404;2023-02-10T08:17:09;97480.25;;;-3.09;97.90
11676;BME280;5894;42.768;23.404;2023-02-10T08:19:36;97476.38;;;-3.05;97.66
11676;BME280;5894;42.768;23.404;2023-02-10T08:22:02;97477.59;;;-2.93;95.22
11676;BME280;5894;42.768;23.404;2023-02-10T08:24:29;97472.81;;;-3.04;94.81
11676;BME280;5894;42.768;23.404;2023-02-10T08:26:58;97473.47;;;-3.02;93.51
11676;BME280;5894;42.768;23.404;2023-02-10T08:29:24;97473.28;;;-3.01;92.81
11676;BME280;5894;42.768;23.404;2023-02-10T08:31:52;97469.72;;;-3.00;94.20
11676;BME280;5894;42.768;23.404;2023-02-10T08:34:20;97478.97;;;-3.05;95.01
11676;BME280;5894;42.768;23.404;2023-02-10T08:36:47;97472.66;;;-3.03;95.45
11676;BME280;5894;42.768;23.404;2023-02-10T08:39:14;97474.28;;;-3.10;95.04
11676;BME280;5894;42.768;23.404;2023-02-10T08:41:42;97476.16;;;-2.96;93.82
11676;BME280;5894;42.768;23.404;2023-02-10T08:44:11;97481.28;;;-2.87;93.84
11676;BME280;5894;42.768;23.404;2023-02-10T08:46:38;97469.88;;;-2.93;94.29
11676;BME280;5894;42.768;23.404;2023-02-10T08:49:05;97472.50;;;-2.78;95.53
11676;BME280;5894;42.768;23.404;2023-02-10T08:51:32;97468.94;;;-2.77;95.79
11676;BME280;5894;42.768;23.404;2023-02-10T08:54:00;97462.53;;;-2.81;96.78
11676;BME280;5894;42.768;23.404;2023-02-10T08:56:26;97461.78;;;-2.67;96.06
11676;BME280;5894;42.768;23.404;2023-02-10T08:58:55;97460.31;;;-2.62;95.12
11676;BME280;5894;42.768;23.404;2023-02-10T09:01:24;97458.16;;;-2.58;95.60
11676;BME280;5894;42.768;23.404;2023-02-10T09:03:52;97455.09;;;-2.53;93.79
11676;BME280;5894;42.768;23.404;2023-02-10T09:06:22;97429.06;;;-2.75;89.96
11676;BME280;5894;42.768;23.404;2023-02-10T09:08:51;97447.81;;;-2.50;89.10
11676;BME280;5894;42.768;23.404;2023-02-10T09:11:20;97449.03;;;-2.46;90.53
11676;BME280;5894;42.768;23.404;2023-02-10T09:13:49;97445.47;;;-2.45;91.78
11676;BME280;5894;42.768;23.404;2023-02-10T09:16:16;97455.59;;;-2.35;92.86
11676;BME280;5894;42.768;23.404;2023-02-10T09:18:45;97444.19;;;-2.26;91.96
11676;BME280;5894;42.768;23.404;2023-02-10T09:21:12;97450.09;;;-2.17;90.69
11676;BME280;5894;42.768;23.404;2023-02-10T09:23:39;97450.56;;;-2.14;90.43
11676;BME280;5894;42.768;23.404;2023-02-10T09:26:06;97442.63;;;-2.12;89.32
11676;BME280;5894;42.768;23.404;2023-02-10T09:28:33;97449.25;;;-2.10;88.56
11676;BME280;5894;42.768;23.404;2023-02-10T09:31:00;97443.44;;;-2.12;87.02
11676;BME280;5894;42.768;23.404;2023-02-10T09:33:26;97441.84;;;-2.13;87.77
11676;BME280;5894;42.768;23.404;2023-02-10T09:35:55;97443.69;;;-2.07;85.38
11676;BME280;5894;42.768;23.404;2023-02-10T09:38:21;97432.03;;;-2.03;86.73
11676;BME280;5894;42.768;23.404;2023-02-10T09:40:58;97424.03;;;-1.93;86.63
11676;BME280;5894;42.768;23.404;2023-02-10T09:43:48;97420.66;;;-1.79;87.70
11676;BME280;5894;42.768;23.404;2023-02-10T09:46:27;97409.94;;;-1.76;85.49
11676;BME280;5894;42.768;23.404;2023-02-10T09:49:08;97420.75;;;-1.72;85.69
11676;BME280;5894;42.768;23.404;2023-02-10T09:51:47;97419.25;;;-1.67;87.17
11676;BME280;5894;42.768;23.404;2023-02-10T09:54:15;97418.50;;;-1.61;86.16
11676;BME280;5894;42.768;23.404;2023-02-10T09:56:43;97411.56;;;-1.60;84.43
11676;BME280;5894;42.768;23.404;2023-02-10T09:59:15;97408.78;;;-1.59;83.50
11676;BME280;5894;42.768;23.404;2023-02-10T10:01:47;97405.94;;;-1.49;87.56
11676;BME280;5894;42.768;23.404;2023-02-10T10:04:16;97401.00;;;-1.44;88.17
11676;BME280;5894;42.768;23.404;2023-02-10T10:06:48;97402.31;;;-1.33;87.04
11676;BME280;5894;42.768;23.404;2023-02-10T10:09:23;97396.91;;;-1.38;88.26
11676;BME280;5894;42.768;23.404;2023-02-10T10:11:55;97396.25;;;-1.26;87.38
11676;BME280;5894;42.768;23.404;2023-02-10T10:14:24;97390.97;;;-1.18;82.61
11676;BME280;5894;42.768;23.404;2023-02-10T10:17:11;97384.44;;;-1.14;81.06
11676;BME280;5894;42.768;23.404;2023-02-10T10:19:56;97380.69;;;-1.11;76.91
11676;BME280;5894;42.768;23.404;2023-02-10T10:22:39;97382.34;;;-1.03;77.65
11676;BME280;5894;42.768;23.404;2023-02-10T10:25:20;97384.56;;;-1.00;82.40
11676;BME280;5894;42.768;23.404;2023-02-10T10:27:55;97377.06;;;-0.95;79.63
11676;BME280;5894;42.768;23.404;2023-02-10T10:30:33;97366.13;;;-0.91;81.71
11676;BME280;5894;42.768;23.404;2023-02-10T10:33:10;97370.03;;;-0.80;78.66
11676;BME280;5894;42.768;23.404;2023-02-10T10:35:42;97361.09;;;-0.78;77.11
11676;BME280;5894;42.768;23.404;2023-02-10T10:38:13;97361.53;;;-0.74;77.71
11676;BME280;5894;42.768;23.404;2023-02-10T10:40:43;97349.06;;;-0.64;77.57
11676;BME280;5894;42.768;23.404;2023-02-10T10:43:17;97345.53;;;-0.56;82.98
11676;BME280;5894;42.768;23.404;2023-02-10T10:45:47;97344.50;;;-0.34;87.99
11676;BME280;5894;42.768;23.404;2023-02-10T10:48:18;97333.38;;;-0.28;79.67
11676;BME280;5894;42.768;23.404;2023-02-10T10:50:51;97339.25;;;-0.13;78.69
11676;BME280;5894;42.768;23.404;2023-02-10T10:53:30;97333.13;;;-0.05;80.04
11676;BME280;5894;42.768;23.404;2023-02-10T10:56:01;97340.00;;;0.09;74.85
11676;BME280;5894;42.768;23.404;2023-02-10T10:58:34;97330.81;;;0.13;73.44
11676;BME280;5894;42.768;23.404;2023-02-10T11:01:04;97326.41;;;0.14;74.60
11676;BME280;5894;42.768;23.404;2023-02-10T11:03:32;97319.09;;;0.24;73.34
11676;BME280;5894;42.768;23.404;2023-02-10T11:06:03;97326.91;;;0.30;72.08
11676;BME280;5894;42.768;23.404;2023-02-10T11:08:36;97328.13;;;0.34;70.32
11676;BME280;5894;42.768;23.404;2023-02-10T11:11:04;97320.13;;;0.36;69.24
11676;BME280;5894;42.768;23.404;2023-02-10T11:13:37;97309.56;;;0.31;70.89
11676;BME280;5894;42.768;23.404;2023-02-10T11:16:06;97313.22;;;0.50;70.48
11676;BME280;5894;42.768;23.404;2023-02-10T11:18:36;97320.19;;;0.49;69.38
11676;BME280;5894;42.768;23.404;2023-02-10T11:21:07;97308.41;;;0.53;74.63
11676;BME280;5894;42.768;23.404;2023-02-10T11:23:47;97306.25;;;0.63;75.45
11676;BME280;5894;42.768;23.404;2023-02-10T11:26:19;97307.69;;;0.79;71.24
11676;BME280;5894;42.768;23.404;2023-02-10T11:28:47;97315.31;;;0.87;67.11
11676;BME280;5894;42.768;23.404;2023-02-10T11:31:25;97296.50;;;0.79;66.51
11676;BME280;5894;42.768;23.404;2023-02-10T11:33:55;97292.34;;;0.91;73.90
11676;BME280;5894;42.768;23.404;2023-02-10T11:36:30;97296.75;;;1.03;65.17
11676;BME280;5894;42.768;23.404;2023-02-10T11:39:02;97283.16;;;1.01;67.60
11676;BME280;5894;42.768;23.404;2023-02-10T11:41:30;97283.75;;;1.10;70.21
11676;BME280;5894;42.768;23.404;2023-02-10T11:43:57;97282.56;;;1.19;72.43
11676;BME280;5894;42.768;23.404;2023-02-10T11:46:28;97279.38;;;1.30;72.86
11676;BME280;5894;42.768;23.404;2023-02-10T11:48:58;97274.97;;;1.44;72.44
11676;BME280;5894;42.768;23.404;2023-02-10T11:51:25;97277.16;;;1.54;71.73
11676;BME280;5894;42.768;23.404;2023-02-10T11:53:52;97279.94;;;1.65;71.91
11676;BME280;5894;42.768;23.404;2023-02-10T11:56:23;97278.66;;;1.88;69.52
11676;BME280;5894;42.768;23.404;2023-02-10T11:59:08;97276.41;;;2.11;69.63
11676;BME280;5894;42.768;23.404;2023-02-10T12:01:48;97263.09;;;2.32;69.94
11676;BME280;5894;42.768;23.404;2023-02-10T12:04:29;97262.84;;;2.47;67.56
11676;BME280;5894;42.768;23.404;2023-02-10T12:07:05;97259.38;;;2.60;65.10
11676;BME280;5894;42.768;23.404;2023-02-10T12:09:41;97258.88;;;2.76;62.81
11676;BME280;5894;42.768;23.404;2023-02-10T12:12:18;97262.81;;;2.85;58.15
11676;BME280;5894;42.768;23.404;2023-02-10T12:14:54;97242.72;;;2.92;58.85
11676;BME280;5894;42.768;23.404;2023-02-10T12:17:27;97243.22;;;3.07;60.97
11676;BME280;5894;42.768;23.404;2023-02-10T12:20:05;97240.13;;;3.17;61.09
11676;BME280;5894;42.768;23.404;2023-02-10T12:22:44;97247.69;;;3.25;62.60
11676;BME280;5894;42.768;23.404;2023-02-10T12:25:19;97226.53;;;3.33;62.78
11676;BME280;5894;42.768;23.404;2023-02-10T12:27:57;97234.31;;;3.40;61.17
11676;BME280;5894;42.768;23.404;2023-02-10T12:30:35;97233.25;;;3.47;60.82
11676;BME280;5894;42.768;23.404;2023-02-10T12:33:27;97233.97;;;3.54;57.63
11676;BME280;5894;42.768;23.404;2023-02-10T12:36:04;97215.16;;;3.52;59.81
11676;BME280;5894;42.768;23.404;2023-02-10T12:38:45;97229.34;;;3.75;60.61
11676;BME280;5894;42.768;23.404;2023-02-10T12:41:23;97226.59;;;3.69;51.28
11676;BME280;5894;42.768;23.404;2023-02-10T12:44:07;97220.91;;;3.54;56.54
11676;BME280;5894;42.768;23.404;2023-02-10T12:46:42;97213.97;;;3.66;58.82
11676;BME280;5894;42.768;23.404;2023-02-10T12:49:28;97213.34;;;3.71;59.30
11676;BME280;5894;42.768;23.404;2023-02-10T12:52:02;97211.53;;;3.72;58.70
11676;BME280;5894;42.768;23.404;2023-02-10T12:54:36;97209.84;;;3.77;57.56
11676;BME280;5894;42.768;23.404;2023-02-10T12:57:11;97212.03;;;3.80;53.33
11676;BME280;5894;42.768;23.404;2023-02-10T12:59:47;97219.16;;;3.73;48.81
11676;BME280;5894;42.768;23.404;2023-02-10T13:02:19;97212.16;;;3.49;53.52
11676;BME280;5894;42.768;23.404;2023-02-10T13:04:50;97216.16;;;3.51;54.59
11676;BME280;5894;42.768;23.404;2023-02-10T13:07:31;97217.09;;;3.57;49.64
11676;BME280;5894;42.768;23.404;2023-02-10T13:10:16;97226.81;;;3.50;52.97
11676;BME280;5894;42.768;23.404;2023-02-10T13:12:46;97212.53;;;3.52;50.52